sensor_id;sensor_type;location;lat;lon;timestamp;P1;durP1;ratioP1;P2;durP2;ratioP2
16127;SDS011;8168;49.036;7.690;2023-02-11T00:00:59;17.60;;;9.50;;
16127;SDS011;8168;49.036;7.690;2023-02-11T00:03:39;23.67;;;10.73;;
16127;SDS011;8168;49.036;7.690;2023-02-11T00:06:10;19.97;;;10.30;;
16127;SDS011;8168;49.036;7.690;2023-02-11T00:08:41;23.07;;;10.77;;
16127;SDS011;8168;49.036;7.690;2023-02-11T00:11:13;25.43;;;11.33;;
16127;SDS011;8168;49.036;7.690;2023-02-11T00:13:45;26.30;;;11.60;;
16127;SDS011;8168;49.036;7.690;2023-02-11T00:16:17;23.43;;;12.93;;
16127;SDS011;8168;49.036;7.690;2023-02-11T00:18:49;17.93;;;9.27;;
16127;SDS011;8168;49.036;7.690;2023-02-11T00:21:23;20.20;;;9.87;;
16127;SDS011;8168;49.036;7.690;2023-02-11T00:23:55;22.00;;;9.87;;
16127;SDS011;8168;49.036;7.690;2023-02-11T00:26:29;21.07;;;10.33;;
16127;SDS011;8168;49.036;7.690;2023-02-11T00:29:02;22.23;;;11.23;;
16127;SDS011;8168;49.036;7.690;2023-02-11T00:31:34;25.27;;;12.10;;
16127;SDS011;8168;49.036;7.690;2023-02-11T00:34:05;31.23;;;13.83;;
16127;SDS011;8168;49.036;7.690;2023-02-11T00:36:36;38.03;;;17.43;;
16127;SDS011;8168;49.036;7.690;2023-02-11T00:39:07;28.57;;;13.47;;
16127;SDS011;8168;49.036;7.690;2023-02-11T00:41:38;32.47;;;14.37;;
16127;SDS011;8168;49.036;7.690;2023-02-11T00:44:09;23.60;;;11.90;;
16127;SDS011;8168;49.036;7.690;2023-02-11T00:46:40;30.50;;;13.10;;
16127;SDS011;8168;49.036;7.690;2023-02-11T00:49:11;27.30;;;12.23;;
16127;SDS011;8168;49.036;7.690;2023-02-11T00:51:43;34.23;;;15.27;;
16127;SDS011;8168;49.036;7.690;2023-02-11T00:54:14;33.87;;;15.40;;
16127;SDS011;8168;49.036;7.690;2023-02-11T00:56:45;37.27;;;14.90;;
16127;SDS011;8168;49.036;7.690;2023-02-11T00:59:16;33.23;;;13.13;;
16127;SDS011;8168;49.036;7.690;2023-02-11T01:01:47;30.17;;;12.73;;
16127;SDS011;8168;49.036;7.690;2023-02-11T01:04:18;27.97;;;13.40;;
16127;SDS011;8168;49.036;7.690;2023-02-11T01:06:49;30.60;;;13.37;;
16127;SDS011;8168;49.036;7.690;2023-02-11T01:09:20;28.17;;;13.73;;
16127;SDS011;8168;49.036;7.690;2023-02-11T01:11:51;37.67;;;14.80;;
16127;SDS011;8168;49.036;7.690;2023-02-11T01:14:22;24.60;;;12.37;;
16127;SDS011;8168;49.036;7.690;2023-02-11T01:16:53;25.97;;;12.63;;
16127;SDS011;8168;49.036;7.690;2023-02-11T01:19:24;22.93;;;11.60;;
16127;SDS011;8168;49.036;7.690;2023-02-11T01:21:55;24.57;;;11.93;;
16127;SDS011;8168;49.036;7.690;2023-02-11T01:24:26;35.70;;;13.60;;
16127;SDS011;8168;49.036;7.690;2023-02-11T01:26:57;30.33;;;13.37;;
16127;SDS011;8168;49.036;7.690;2023-02-11T01:29:28;31.17;;;14.43;;
16127;SDS011;8168;49.036;7.690;2023-02-11T01:31:59;25.00;;;12.43;;
16127;SDS011;8168;49.036;7.690;2023-02-11T01:34:30;25.60;;;13.20;;
16127;SDS011;8168;49.036;7.690;2023-02-11T01:37:01;26.00;;;12.80;;
16127;SDS011;8168;49.036;7.690;2023-02-11T01:39:33;25.10;;;12.63;;
16127;SDS011;8168;49.036;7.690;2023-02-11T01:42:04;26.27;;;12.60;;
16127;SDS011;8168;49.036;7.690;2023-02-11T01:44:36;24.10;;;12.50;;
16127;SDS011;8168;49.036;7.690;2023-02-11T01:47:08;22.87;;;12.23;;
16127;SDS011;8168;49.036;7.690;2023-02-11T01:49:41;25.33;;;12.33;;
16127;SDS011;8168;49.036;7.690;2023-02-11T01:54:52;21.73;;;11.07;;
16127;SDS011;8168;49.036;7.690;2023-02-11T01:57:45;22.93;;;10.90;;
16127;SDS011;8168;49.036;7.690;2023-02-11T02:10:34;19.53;;;11.17;;
16127;SDS011;8168;49.036;7.690;2023-02-11T02:13:09;19.13;;;9.97;;
16127;SDS011;8168;49.036;7.690;2023-02-11T02:15:43;23.50;;;10.73;;
16127;SDS011;8168;49.036;7.690;2023-02-11T02:23:55;23.27;;;12.00;;
16127;SDS011;8168;49.036;7.690;2023-02-11T02:40:56;26.40;;;12.23;;
16127;SDS011;8168;49.036;7.690;2023-02-11T02:43:40;21.47;;;11.20;;
16127;SDS011;8168;49.036;7.690;2023-02-11T02:48:43;22.23;;;11.43;;
16127;SDS011;8168;49.036;7.690;2023-02-11T03:06:19;23.30;;;10.83;;
16127;SDS011;8168;49.036;7.690;2023-02-11T03:09:06;17.13;;;9.63;;
16127;SDS011;8168;49.036;7.690;2023-02-11T03:11:42;16.50;;;7.87;;
16127;SDS011;8168;49.036;7.690;2023-02-11T03:14:14;19.03;;;8.53;;
16127;SDS011;8168;49.036;7.690;2023-02-11T03:16:47;14.27;;;7.70;;
16127;SDS011;8168;49.036;7.690;2023-02-11T03:19:20;16.37;;;8.60;;
16127;SDS011;8168;49.036;7.690;2023-02-11T03:22:16;17.60;;;8.43;;
16127;SDS011;8168;49.036;7.690;2023-02-11T03:24:50;15.93;;;8.70;;
16127;SDS011;8168;49.036;7.690;2023-02-11T03:27:32;15.07;;;8.30;;
16127;SDS011;8168;49.036;7.690;2023-02-11T03:30:17;20.67;;;8.87;;
16127;SDS011;8168;49.036;7.690;2023-02-11T03:32:58;21.30;;;8.40;;
16127;SDS011;8168;49.036;7.690;2023-02-11T03:35:35;19.10;;;9.10;;
16127;SDS011;8168;49.036;7.690;2023-02-11T03:38:15;16.87;;;7.63;;
16127;SDS011;8168;49.036;7.690;2023-02-11T03:40:52;15.10;;;8.47;;
16127;SDS011;8168;49.036;7.690;2023-02-11T03:43:29;16.03;;;8.63;;
16127;SDS011;8168;49.036;7.690;2023-02-11T03:46:07;15.00;;;7.87;;
16127;SDS011;8168;49.036;7.690;2023-02-11T03:48:42;16.40;;;8.07;;
16127;SDS011;8168;49.036;7.690;2023-02-11T03:51:17;16.67;;;9.07;;
16127;SDS011;8168;49.036;7.690;2023-02-11T03:53:53;16.33;;;8.90;;
16127;SDS011;8168;49.036;7.690;2023-02-11T03:56:28;14.77;;;8.77;;
16127;SDS011;8168;49.036;7.690;2023-02-11T03:59:02;18.07;;;8.93;;
16127;SDS011;8168;49.036;7.690;2023-02-11T04:01:33;17.30;;;9.17;;
16127;SDS011;8168;49.036;7.690;2023-02-11T04:04:04;16.23;;;9.33;;
16127;SDS011;8168;49.036;7.690;2023-02-11T04:06:35;20.03;;;9.27;;
16127;SDS011;8168;49.036;7.690;2023-02-11T04:09:06;15.47;;;8.60;;
16127;SDS011;8168;49.036;7.690;2023-02-11T04:11:37;16.93;;;8.40;;
16127;SDS011;8168;49.036;7.690;2023-02-11T04:14:08;14.00;;;8.40;;
16127;SDS011;8168;49.036;7.690;2023-02-11T04:16:39;17.03;;;8.53;;
16127;SDS011;8168;49.036;7.690;2023-02-11T04:19:10;14.37;;;7.93;;
16127;SDS011;8168;49.036;7.690;2023-02-11T04:21:41;15.23;;;8.63;;
16127;SDS011;8168;49.036;7.690;2023-02-11T04:24:12;16.17;;;7.97;;
16127;SDS011;8168;49.036;7.690;2023-02-11T04:26:43;12.33;;;6.83;;
16127;SDS011;8168;49.036;7.690;2023-02-11T04:29:14;14.03;;;7.83;;
16127;SDS011;8168;49.036;7.690;2023-02-11T04:31:46;15.90;;;8.47;;
16127;SDS011;8168;49.036;7.690;2023-02-11T04:34:16;15.33;;;7.77;;
16127;SDS011;8168;49.036;7.690;2023-02-11T04:36:48;14.07;;;7.50;;
16127;SDS011;8168;49.036;7.690;2023-02-11T04:39:19;14.47;;;8.03;;
16127;SDS011;8168;49.036;7.690;2023-02-11T04:41:50;17.23;;;7.80;;
16127;SDS011;8168;49.036;7.690;2023-02-11T04:44:20;14.03;;;7.63;;
16127;SDS011;8168;49.036;7.690;2023-02-11T04:46:51;14.53;;;8.43;;
16127;SDS011;8168;49.036;7.690;2023-02-11T04:49:22;13.50;;;7.83;;
16127;SDS011;8168;49.036;7.690;2023-02-11T04:51:54;14.57;;;8.43;;
16127;SDS011;8168;49.036;7.690;2023-02-11T04:54:24;16.33;;;7.37;;
16127;SDS011;8168;49.036;7.690;2023-02-11T04:56:55;17.37;;;8.87;;
16127;SDS011;8168;49.036;7.690;2023-02-11T04:59:26;13.83;;;7.77;;
16127;SDS011;8168;49.036;7.690;2023-02-11T05:01:57;14.37;;;8.40;;
16127;SDS011;8168;49.036;7.690;2023-02-11T05:04:28;15.27;;;8.40;;
16127;SDS011;8168;49.036;7.690;2023-02-11T05:06:59;17.00;;;8.77;;
16127;SDS011;8168;49.036;7.690;2023-02-11T05:09:30;13.90;;;8.27;;
16127;SDS011;8168;49.036;7.690;2023-02-11T05:12:01;15.03;;;8.87;;
16127;SDS011;8168;49.036;7.690;2023-02-11T05:14:32;14.43;;;8.67;;
16127;SDS011;8168;49.036;7.690;2023-02-11T05:17:03;16.60;;;8.47;;
16127;SDS011;8168;49.036;7.690;2023-02-11T05:19:34;18.27;;;8.70;;
16127;SDS011;8168;49.036;7.690;2023-02-11T05:22:05;19.17;;;11.10;;
16127;SDS011;8168;49.036;7.690;2023-02-11T05:24:36;18.57;;;9.87;;
16127;SDS011;8168;49.036;7.690;2023-02-11T05:27:07;15.53;;;7.70;;
16127;SDS011;8168;49.036;7.690;2023-02-11T05:29:38;14.17;;;8.50;;
16127;SDS011;8168;49.036;7.690;2023-02-11T05:32:09;17.10;;;8.23;;
16127;SDS011;8168;49.036;7.690;2023-02-11T05:34:41;16.37;;;8.43;;
16127;SDS011;8168;49.036;7.690;2023-02-11T05:37:12;13.03;;;7.80;;
16127;SDS011;8168;49.036;7.690;2023-02-11T05:39:43;13.10;;;8.63;;
16127;SDS011;8168;49.036;7.690;2023-02-11T05:42:14;39.73;;;16.33;;
16127;SDS011;8168;49.036;7.690;2023-02-11T05:44:45;38.80;;;16.73;;
16127;SDS011;8168;49.036;7.690;2023-02-11T05:47:16;46.57;;;18.23;;
16127;SDS011;8168;49.036;7.690;2023-02-11T05:49:47;48.03;;;18.70;;
16127;SDS011;8168;49.036;7.690;2023-02-11T05:52:18;51.27;;;19.87;;
16127;SDS011;8168;49.036;7.690;2023-02-11T05:54:50;48.97;;;21.67;;
16127;SDS011;8168;49.036;7.690;2023-02-11T05:57:20;48.90;;;20.53;;
16127;SDS011;8168;49.036;7.690;2023-02-11T05:59:51;19.33;;;10.17;;
16127;SDS011;8168;49.036;7.690;2023-02-11T06:02:22;22.57;;;13.03;;
16127;SDS011;8168;49.036;7.690;2023-02-11T06:04:53;24.80;;;13.43;;
16127;SDS011;8168;49.036;7.690;2023-02-11T06:07:24;29.40;;;15.40;;
16127;SDS011;8168;49.036;7.690;2023-02-11T06:09:55;34.13;;;16.10;;
16127;SDS011;8168;49.036;7.690;2023-02-11T06:12:26;38.17;;;18.50;;
16127;SDS011;8168;49.036;7.690;2023-02-11T06:14:57;23.20;;;13.03;;
16127;SDS011;8168;49.036;7.690;2023-02-11T06:17:28;29.63;;;13.03;;
16127;SDS011;8168;49.036;7.690;2023-02-11T06:20:04;28.50;;;15.37;;
16127;SDS011;8168;49.036;7.690;2023-02-11T06:22:36;38.00;;;16.73;;
16127;SDS011;8168;49.036;7.690;2023-02-11T06:25:07;32.83;;;16.63;;
16127;SDS011;8168;49.036;7.690;2023-02-11T06:27:39;34.43;;;16.63;;
16127;SDS011;8168;49.036;7.690;2023-02-11T06:30:11;29.63;;;15.30;;
16127;SDS011;8168;49.036;7.690;2023-02-11T06:32:42;30.40;;;15.57;;
16127;SDS011;8168;49.036;7.690;2023-02-11T06:35:13;34.67;;;16.33;;
16127;SDS011;8168;49.036;7.690;2023-02-11T06:37:44;21.37;;;10.53;;
16127;SDS011;8168;49.036;7.690;2023-02-11T06:40:15;14.40;;;8.50;;
16127;SDS011;8168;49.036;7.690;2023-02-11T06:42:46;19.50;;;9.80;;
16127;SDS011;8168;49.036;7.690;2023-02-11T06:45:18;20.67;;;9.67;;
16127;SDS011;8168;49.036;7.690;2023-02-11T06:47:50;18.73;;;10.23;;
16127;SDS011;8168;49.036;7.690;2023-02-11T06:50:21;19.13;;;9.87;;
16127;SDS011;8168;49.036;7.690;2023-02-11T06:52:52;21.87;;;11.07;;
16127;SDS011;8168;49.036;7.690;2023-02-11T06:55:23;18.20;;;11.10;;
16127;SDS011;8168;49.036;7.690;2023-02-11T06:57:55;19.70;;;11.43;;
16127;SDS011;8168;49.036;7.690;2023-02-11T07:00:26;18.27;;;9.73;;
16127;SDS011;8168;49.036;7.690;2023-02-11T07:02:58;20.77;;;10.90;;
16127;SDS011;8168;49.036;7.690;2023-02-11T07:05:29;19.50;;;10.47;;
16127;SDS011;8168;49.036;7.690;2023-02-11T07:08:00;19.80;;;9.77;;
16127;SDS011;8168;49.036;7.690;2023-02-11T07:10:31;16.83;;;9.13;;
16127;SDS011;8168;49.036;7.690;2023-02-11T07:13:03;14.70;;;8.57;;
16127;SDS011;8168;49.036;7.690;2023-02-11T07:15:35;15.43;;;8.20;;
16127;SDS011;8168;49.036;7.690;2023-02-11T07:18:06;15.27;;;8.47;;
16127;SDS011;8168;49.036;7.690;2023-02-11T07:20:37;16.47;;;9.37;;
16127;SDS011;8168;49.036;7.690;2023-02-11T07:23:08;16.53;;;9.17;;
16127;SDS011;8168;49.036;7.690;2023-02-11T07:25:40;14.27;;;9.00;;
16127;SDS011;8168;49.036;7.690;2023-02-11T07:28:11;18.40;;;9.57;;
16127;SDS011;8168;49.036;7.690;2023-02-11T07:30:42;18.00;;;9.67;;
16127;SDS011;8168;49.036;7.690;2023-02-11T07:33:13;14.67;;;9.27;;
16127;SDS011;8168;49.036;7.690;2023-02-11T07:35:43;18.33;;;11.03;;
16127;SDS011;8168;49.036;7.690;2023-02-11T07:38:15;17.87;;;10.93;;
16127;SDS011;8168;49.036;7.690;2023-02-11T07:40:46;29.30;;;15.87;;
16127;SDS011;8168;49.036;7.690;2023-02-11T07:43:17;21.80;;;13.73;;
16127;SDS011;8168;49.036;7.690;2023-02-11T07:45:49;31.50;;;14.73;;
16127;SDS011;8168;49.036;7.690;2023-02-11T07:48:19;23.57;;;13.90;;
16127;SDS011;8168;49.036;7.690;2023-02-11T07:50:50;23.03;;;14.20;;
16127;SDS011;8168;49.036;7.690;2023-02-11T07:53:21;30.87;;;16.17;;
16127;SDS011;8168;49.036;7.690;2023-02-11T07:55:52;28.43;;;15.03;;
16127;SDS011;8168;49.036;7.690;2023-02-11T07:58:23;28.20;;;15.90;;
16127;SDS011;8168;49.036;7.690;2023-02-11T08:00:54;33.23;;;17.33;;
16127;SDS011;8168;49.036;7.690;2023-02-11T08:03:31;30.80;;;16.97;;
16127;SDS011;8168;49.036;7.690;2023-02-11T08:06:03;33.03;;;17.07;;
16127;SDS011;8168;49.036;7.690;2023-02-11T08:08:42;28.60;;;15.67;;
16127;SDS011;8168;49.036;7.690;2023-02-11T08:11:14;30.33;;;16.03;;
16127;SDS011;8168;49.036;7.690;2023-02-11T08:13:50;35.03;;;18.60;;
16127;SDS011;8168;49.036;7.690;2023-02-11T08:16:28;36.20;;;18.60;;
16127;SDS011;8168;49.036;7.690;2023-02-11T08:19:02;32.10;;;17.70;;
16127;SDS011;8168;49.036;7.690;2023-02-11T08:21:34;36.57;;;17.37;;
16127;SDS011;8168;49.036;7.690;2023-02-11T08:24:05;33.90;;;18.93;;
16127;SDS011;8168;49.036;7.690;2023-02-11T08:26:37;28.27;;;16.67;;
16127;SDS011;8168;49.036;7.690;2023-02-11T08:29:08;24.73;;;15.13;;
16127;SDS011;8168;49.036;7.690;2023-02-11T08:31:42;29.07;;;15.80;;
16127;SDS011;8168;49.036;7.690;2023-02-11T08:34:15;31.47;;;16.23;;
16127;SDS011;8168;49.036;7.690;2023-02-11T08:36:49;20.67;;;13.17;;
16127;SDS011;8168;49.036;7.690;2023-02-11T08:39:20;24.73;;;14.20;;
16127;SDS011;8168;49.036;7.690;2023-02-11T08:41:52;22.53;;;12.90;;
16127;SDS011;8168;49.036;7.690;2023-02-11T08:44:25;24.03;;;11.33;;
16127;SDS011;8168;49.036;7.690;2023-02-11T08:46:56;19.90;;;11.60;;
16127;SDS011;8168;49.036;7.690;2023-02-11T08:49:27;21.50;;;11.87;;
16127;SDS011;8168;49.036;7.690;2023-02-11T08:51:59;15.97;;;10.20;;
16127;SDS011;8168;49.036;7.690;2023-02-11T08:54:33;15.93;;;9.23;;
16127;SDS011;8168;49.036;7.690;2023-02-11T08:57:04;18.20;;;8.93;;
16127;SDS011;8168;49.036;7.690;2023-02-11T08:59:34;21.80;;;11.80;;
16127;SDS011;8168;49.036;7.690;2023-02-11T09:02:08;15.80;;;8.67;;
16127;SDS011;8168;49.036;7.690;2023-02-11T09:04:41;13.33;;;8.13;;
16127;SDS011;8168;49.036;7.690;2023-02-11T09:07:12;15.93;;;8.77;;
16127;SDS011;8168;49.036;7.690;2023-02-11T09:09:43;15.27;;;8.17;;
16127;SDS011;8168;49.036;7.690;2023-02-11T09:12:13;14.33;;;8.07;;
16127;SDS011;8168;49.036;7.690;2023-02-11T09:14:44;10.70;;;6.77;;
16127;SDS011;8168;49.036;7.690;2023-02-11T09:17:15;13.97;;;7.03;;
16127;SDS011;8168;49.036;7.690;2023-02-11T09:19:45;11.33;;;6.60;;
16127;SDS011;8168;49.036;7.690;2023-02-11T09:22:16;11.50;;;6.30;;
16127;SDS011;8168;49.036;7.690;2023-02-11T09:24:47;10.03;;;5.87;;
16127;SDS011;8168;49.036;7.690;2023-02-11T09:27:18;9.83;;;5.37;;
16127;SDS011;8168;49.036;7.690;2023-02-11T09:29:49;8.73;;;5.17;;
16127;SDS011;8168;49.036;7.690;2023-02-11T09:32:19;13.00;;;5.30;;
16127;SDS011;8168;49.036;7.690;2023-02-11T09:34:50;8.40;;;5.57;;
16127;SDS011;8168;49.036;7.690;2023-02-11T09:37:21;9.10;;;5.57;;
16127;SDS011;8168;49.036;7.690;2023-02-11T09:39:51;9.30;;;5.90;;
16127;SDS011;8168;49.036;7.690;2023-02-11T09:45:26;8.37;;;5.17;;
16127;SDS011;8168;49.036;7.690;2023-02-11T09:47:59;5.57;;;3.93;;
16127;SDS011;8168;49.036;7.690;2023-02-11T09:50:40;6.67;;;4.63;;
16127;SDS011;8168;49.036;7.690;2023-02-11T09:55:54;7.50;;;5.30;;
16127;SDS011;8168;49.036;7.690;2023-02-11T09:58:29;8.17;;;5.43;;
16127;SDS011;8168;49.036;7.690;2023-02-11T10:06:49;12.40;;;6.47;;
16127;SDS011;8168;49.036;7.690;2023-02-11T10:09:27;10.50;;;5.63;;
16127;SDS011;8168;49.036;7.690;2023-02-11T10:15:13;12.70;;;6.37;;
16127;SDS011;8168;49.036;7.690;2023-02-11T10:23:00;10.47;;;6.30;;
16127;SDS011;8168;49.036;7.690;2023-02-11T10:25:45;10.87;;;7.60;;
16127;SDS011;8168;49.036;7.690;2023-02-11T10:28:20;11.30;;;7.10;;
16127;SDS011;8168;49.036;7.690;2023-02-11T10:33:33;14.17;;;9.90;;
16127;SDS011;8168;49.036;7.690;2023-02-11T10:36:11;12.60;;;8.60;;
16127;SDS011;8168;49.036;7.690;2023-02-11T10:38:43;13.33;;;7.57;;
16127;SDS011;8168;49.036;7.690;2023-02-11T10:41:21;12.43;;;6.83;;
16127;SDS011;8168;49.036;7.690;2023-02-11T10:43:57;13.73;;;8.63;;
16127;SDS011;8168;49.036;7.690;2023-02-11T10:46:31;11.87;;;8.07;;
16127;SDS011;8168;49.036;7.690;2023-02-11T10:49:05;15.57;;;8.90;;
16127;SDS011;8168;49.036;7.690;2023-02-11T10:51:36;12.43;;;7.27;;
16127;SDS011;8168;49.036;7.690;2023-02-11T10:56:40;14.63;;;9.13;;
16127;SDS011;8168;49.036;7.690;2023-02-11T10:59:33;14.80;;;10.00;;
16127;SDS011;8168;49.036;7.690;2023-02-11T11:02:23;10.87;;;6.10;;
16127;SDS011;8168;49.036;7.690;2023-02-11T11:05:05;15.47;;;9.03;;
16127;SDS011;8168;49.036;7.690;2023-02-11T11:07:52;15.93;;;9.07;;
16127;SDS011;8168;49.036;7.690;2023-02-11T11:13:03;16.03;;;9.03;;
16127;SDS011;8168;49.036;7.690;2023-02-11T11:15:33;15.97;;;9.10;;
16127;SDS011;8168;49.036;7.690;2023-02-11T11:18:17;13.90;;;8.30;;
16127;SDS011;8168;49.036;7.690;2023-02-11T11:20:58;13.37;;;8.50;;
16127;SDS011;8168;49.036;7.690;2023-02-11T11:23:30;14.90;;;7.30;;
16127;SDS011;8168;49.036;7.690;2023-02-11T11:26:03;13.30;;;8.43;;
16127;SDS011;8168;49.036;7.690;2023-02-11T11:31:26;8.33;;;5.00;;
16127;SDS011;8168;49.036;7.690;2023-02-11T11:34:04;14.67;;;7.60;;
16127;SDS011;8168;49.036;7.690;2023-02-11T11:37:09;15.50;;;10.03;;
16127;SDS011;8168;49.036;7.690;2023-02-11T11:39:42;10.87;;;6.17;;
16127;SDS011;8168;49.036;7.690;2023-02-11T11:42:28;14.53;;;9.73;;
16127;SDS011;8168;49.036;7.690;2023-02-11T11:45:05;15.77;;;9.30;;
16127;SDS011;8168;49.036;7.690;2023-02-11T11:48:08;8.10;;;5.07;;
16127;SDS011;8168;49.036;7.690;2023-02-11T11:50:58;12.73;;;8.87;;
16127;SDS011;8168;49.036;7.690;2023-02-11T11:58:43;8.97;;;6.80;;
16127;SDS011;8168;49.036;7.690;2023-02-11T12:04:07;18.17;;;9.03;;
16127;SDS011;8168;49.036;7.690;2023-02-11T12:15:51;13.23;;;9.20;;
16127;SDS011;8168;49.036;7.690;2023-02-11T12:18:50;15.80;;;9.90;;
16127;SDS011;8168;49.036;7.690;2023-02-11T12:30:28;10.43;;;6.67;;
16127;SDS011;8168;49.036;7.690;2023-02-11T12:33:22;16.73;;;10.07;;
16127;SDS011;8168;49.036;7.690;2023-02-11T12:39:49;13.00;;;8.67;;
16127;SDS011;8168;49.036;7.690;2023-02-11T12:51:38;14.77;;;9.70;;
16127;SDS011;8168;49.036;7.690;2023-02-11T12:56:54;11.93;;;8.70;;
16127;SDS011;8168;49.036;7.690;2023-02-11T13:08:09;14.73;;;9.73;;
16127;SDS011;8168;49.036;7.690;2023-02-11T13:10:47;13.60;;;9.63;;
16127;SDS011;8168;49.036;7.690;2023-02-11T13:16:05;13.43;;;9.47;;
16127;SDS011;8168;49.036;7.690;2023-02-11T13:18:48;14.17;;;9.47;;
16127;SDS011;8168;49.036;7.690;2023-02-11T13:21:25;13.77;;;9.47;;
16127;SDS011;8168;49.036;7.690;2023-02-11T13:32:13;11.47;;;8.77;;
16127;SDS011;8168;49.036;7.690;2023-02-11T13:37:35;12.27;;;8.33;;
16127;SDS011;8168;49.036;7.690;2023-02-11T13:40:20;14.20;;;9.13;;
16127;SDS011;8168;49.036;7.690;2023-02-11T13:42:53;16.93;;;10.60;;
16127;SDS011;8168;49.036;7.690;2023-02-11T13:45:31;18.00;;;10.67;;
16127;SDS011;8168;49.036;7.690;2023-02-11T13:48:16;11.43;;;7.77;;
16127;SDS011;8168;49.036;7.690;2023-02-11T13:50:55;14.70;;;9.93;;
16127;SDS011;8168;49.036;7.690;2023-02-11T13:53:42;17.00;;;10.60;;
16127;SDS011;8168;49.036;7.690;2023-02-11T13:56:29;16.77;;;11.10;;
16127;SDS011;8168;49.036;7.690;2023-02-11T14:11:01;18.07;;;11.93;;
16127;SDS011;8168;49.036;7.690;2023-02-11T14:16:17;17.60;;;10.50;;
16127;SDS011;8168;49.036;7.690;2023-02-11T14:42:14;18.30;;;9.90;;
16127;SDS011;8168;49.036;7.690;2023-02-11T14:44:49;16.03;;;10.87;;
16127;SDS011;8168;49.036;7.690;2023-02-11T14:47:26;17.37;;;11.90;;
16127;SDS011;8168;49.036;7.690;2023-02-11T14:50:56;17.67;;;12.27;;
16127;SDS011;8168;49.036;7.690;2023-02-11T14:53:18;20.17;;;11.77;;
16127;SDS011;8168;49.036;7.690;2023-02-11T14:55:54;19.10;;;11.17;;
16127;SDS011;8168;49.036;7.690;2023-02-11T15:01:01;19.67;;;12.47;;
16127;SDS011;8168;49.036;7.690;2023-02-11T15:03:51;19.57;;;12.30;;
16127;SDS011;8168;49.036;7.690;2023-02-11T15:06:46;19.00;;;12.60;;
16127;SDS011;8168;49.036;7.690;2023-02-11T15:12:01;19.83;;;13.10;;
16127;SDS011;8168;49.036;7.690;2023-02-11T15:14:33;19.93;;;12.87;;
16127;SDS011;8168;49.036;7.690;2023-02-11T15:17:05;22.77;;;12.60;;
16127;SDS011;8168;49.036;7.690;2023-02-11T15:19:38;18.60;;;12.40;;
16127;SDS011;8168;49.036;7.690;2023-02-11T15:22:17;21.13;;;13.57;;
16127;SDS011;8168;49.036;7.690;2023-02-11T15:25:01;20.70;;;12.43;;
16127;SDS011;8168;49.036;7.690;2023-02-11T15:27:48;26.10;;;14.97;;
16127;SDS011;8168;49.036;7.690;2023-02-11T15:32:56;23.67;;;14.50;;
16127;SDS011;8168;49.036;7.690;2023-02-11T15:35:33;21.83;;;13.93;;
16127;SDS011;8168;49.036;7.690;2023-02-11T15:38:06;23.93;;;14.43;;
16127;SDS011;8168;49.036;7.690;2023-02-11T15:40:39;20.97;;;12.57;;
16127;SDS011;8168;49.036;7.690;2023-02-11T15:43:44;23.30;;;13.53;;
16127;SDS011;8168;49.036;7.690;2023-02-11T15:46:17;21.87;;;13.83;;
16127;SDS011;8168;49.036;7.690;2023-02-11T15:48:51;20.60;;;12.97;;
16127;SDS011;8168;49.036;7.690;2023-02-11T15:54:07;20.50;;;12.83;;
16127;SDS011;8168;49.036;7.690;2023-02-11T15:56:48;19.93;;;12.53;;
16127;SDS011;8168;49.036;7.690;2023-02-11T15:59:24;19.87;;;12.57;;
16127;SDS011;8168;49.036;7.690;2023-02-11T16:02:20;20.53;;;13.00;;
16127;SDS011;8168;49.036;7.690;2023-02-11T16:05:05;22.20;;;13.43;;
16127;SDS011;8168;49.036;7.690;2023-02-11T16:07:47;20.03;;;12.33;;
16127;SDS011;8168;49.036;7.690;2023-02-11T16:18:04;20.47;;;12.70;;
16127;SDS011;8168;49.036;7.690;2023-02-11T16:20:47;18.93;;;12.23;;
16127;SDS011;8168;49.036;7.690;2023-02-11T16:23:22;20.50;;;12.83;;
16127;SDS011;8168;49.036;7.690;2023-02-11T16:26:11;20.60;;;13.30;;
16127;SDS011;8168;49.036;7.690;2023-02-11T16:29:13;21.67;;;12.37;;
16127;SDS011;8168;49.036;7.690;2023-02-11T16:34:44;25.33;;;13.07;;
16127;SDS011;8168;49.036;7.690;2023-02-11T16:37:15;21.43;;;12.67;;
16127;SDS011;8168;49.036;7.690;2023-02-11T16:39:46;22.33;;;13.10;;
16127;SDS011;8168;49.036;7.690;2023-02-11T16:42:17;24.67;;;13.53;;
16127;SDS011;8168;49.036;7.690;2023-02-11T16:44:47;20.47;;;12.47;;
16127;SDS011;8168;49.036;7.690;2023-02-11T16:47:19;20.73;;;12.53;;
16127;SDS011;8168;49.036;7.690;2023-02-11T16:49:56;17.47;;;11.67;;
16127;SDS011;8168;49.036;7.690;2023-02-11T16:52:27;22.93;;;13.43;;
16127;SDS011;8168;49.036;7.690;2023-02-11T16:55:00;20.27;;;12.40;;
16127;SDS011;8168;49.036;7.690;2023-02-11T16:57:31;16.97;;;11.20;;
16127;SDS011;8168;49.036;7.690;2023-02-11T17:00:02;21.67;;;12.77;;
16127;SDS011;8168;49.036;7.690;2023-02-11T17:02:35;20.43;;;12.83;;
16127;SDS011;8168;49.036;7.690;2023-02-11T17:05:10;23.13;;;14.27;;
16127;SDS011;8168;49.036;7.690;2023-02-11T17:07:46;26.07;;;14.73;;
16127;SDS011;8168;49.036;7.690;2023-02-11T17:10:18;20.73;;;12.83;;
16127;SDS011;8168;49.036;7.690;2023-02-11T17:12:50;19.37;;;11.30;;
16127;SDS011;8168;49.036;7.690;2023-02-11T17:15:22;17.33;;;10.17;;
16127;SDS011;8168;49.036;7.690;2023-02-11T17:17:53;18.00;;;10.80;;
16127;SDS011;8168;49.036;7.690;2023-02-11T17:20:23;17.03;;;10.73;;
16127;SDS011;8168;49.036;7.690;2023-02-11T17:22:54;18.77;;;10.93;;
16127;SDS011;8168;49.036;7.690;2023-02-11T17:25:25;16.70;;;10.77;;
16127;SDS011;8168;49.036;7.690;2023-02-11T17:27:55;14.70;;;10.10;;
16127;SDS011;8168;49.036;7.690;2023-02-11T17:30:26;19.03;;;10.93;;
16127;SDS011;8168;49.036;7.690;2023-02-11T17:32:57;16.63;;;10.43;;
16127;SDS011;8168;49.036;7.690;2023-02-11T17:35:30;15.63;;;8.83;;
16127;SDS011;8168;49.036;7.690;2023-02-11T17:38:01;14.90;;;10.37;;
16127;SDS011;8168;49.036;7.690;2023-02-11T17:40:31;15.03;;;8.67;;
16127;SDS011;8168;49.036;7.690;2023-02-11T17:43:02;14.10;;;8.47;;
16127;SDS011;8168;49.036;7.690;2023-02-11T17:45:33;13.33;;;8.53;;
16127;SDS011;8168;49.036;7.690;2023-02-11T17:48:04;13.43;;;8.57;;
16127;SDS011;8168;49.036;7.690;2023-02-11T17:50:35;14.07;;;8.47;;
16127;SDS011;8168;49.036;7.690;2023-02-11T17:53:06;14.70;;;8.70;;
16127;SDS011;8168;49.036;7.690;2023-02-11T17:55:36;12.63;;;8.90;;
16127;SDS011;8168;49.036;7.690;2023-02-11T17:58:07;13.73;;;8.30;;
16127;SDS011;8168;49.036;7.690;2023-02-11T18:00:38;15.90;;;8.27;;
16127;SDS011;8168;49.036;7.690;2023-02-11T18:03:08;13.47;;;7.23;;
16127;SDS011;8168;49.036;7.690;2023-02-11T18:05:39;16.87;;;7.87;;
16127;SDS011;8168;49.036;7.690;2023-02-11T18:08:10;15.10;;;9.10;;
16127;SDS011;8168;49.036;7.690;2023-02-11T18:10:40;16.20;;;9.53;;
16127;SDS011;8168;49.036;7.690;2023-02-11T18:13:12;20.83;;;11.93;;
16127;SDS011;8168;49.036;7.690;2023-02-11T18:15:42;20.47;;;12.03;;
16127;SDS011;8168;49.036;7.690;2023-02-11T18:18:13;16.97;;;10.23;;
16127;SDS011;8168;49.036;7.690;2023-02-11T18:20:44;13.13;;;7.83;;
16127;SDS011;8168;49.036;7.690;2023-02-11T18:23:15;13.83;;;8.87;;
16127;SDS011;8168;49.036;7.690;2023-02-11T18:25:46;17.10;;;9.60;;
16127;SDS011;8168;49.036;7.690;2023-02-11T18:28:16;18.57;;;9.20;;
16127;SDS011;8168;49.036;7.690;2023-02-11T18:30:47;21.03;;;10.80;;
16127;SDS011;8168;49.036;7.690;2023-02-11T18:33:20;15.13;;;8.93;;
16127;SDS011;8168;49.036;7.690;2023-02-11T18:35:51;18.70;;;10.63;;
16127;SDS011;8168;49.036;7.690;2023-02-11T18:38:22;25.63;;;12.07;;
16127;SDS011;8168;49.036;7.690;2023-02-11T18:40:55;21.27;;;10.97;;
16127;SDS011;8168;49.036;7.690;2023-02-11T18:43:26;22.50;;;10.63;;
16127;SDS011;8168;49.036;7.690;2023-02-11T18:46:06;19.33;;;10.10;;